createdAt,value
2023-06-02T00:00:49.042Z,14.21
2023-06-02T00:03:38.501Z,14.15
2023-06-02T00:06:07.208Z,14.11
2023-06-02T00:08:40.221Z,14.06
2023-06-02T00:11:10.143Z,14.05
2023-06-02T00:13:39.570Z,14.03
2023-06-02T00:16:08.261Z,13.93
2023-06-02T00:18:41.130Z,13.87
2023-06-02T00:21:09.408Z,13.83
2023-06-02T00:23:37.516Z,13.82
2023-06-02T00:26:05.841Z,13.78
2023-06-02T00:28:34.254Z,13.75
2023-06-02T00:31:02.430Z,13.79
2023-06-02T00:33:30.578Z,13.81
2023-06-02T00:35:58.992Z,13.79
2023-06-02T00:38:28.277Z,13.75
2023-06-02T00:40:57.091Z,13.67
2023-06-02T00:43:25.389Z,13.62
2023-06-02T00:45:56.868Z,13.58
2023-06-02T00:48:25.430Z,13.59
2023-06-02T00:50:53.794Z,13.63
2023-06-02T00:53:22.064Z,13.64
2023-06-02T00:55:53.389Z,13.66
2023-06-02T00:58:22.468Z,13.67
2023-06-02T01:00:51.093Z,13.67
2023-06-02T01:03:22.549Z,13.63
2023-06-02T01:05:56.933Z,13.56
2023-06-02T01:08:26.163Z,13.53
2023-06-02T01:10:55.497Z,13.51
2023-06-02T01:13:24.778Z,13.50
2023-06-02T01:15:52.878Z,13.47
2023-06-02T01:18:26.513Z,13.42
2023-06-02T01:20:58.731Z,13.39
2023-06-02T01:23:38.060Z,13.36
2023-06-02T01:26:06.618Z,13.31
2023-06-02T01:28:34.905Z,13.30
2023-06-02T01:31:27.334Z,13.33
2023-06-02T01:34:18.620Z,13.33
2023-06-02T01:36:50.409Z,13.34
2023-06-02T01:39:19.822Z,13.35
2023-06-02T01:41:50.835Z,13.36
2023-06-02T01:44:20.871Z,13.38
2023-06-02T01:46:50.032Z,13.41
2023-06-02T01:49:19.002Z,13.48
2023-06-02T01:51:47.700Z,13.53
2023-06-02T01:54:16.700Z,13.58
2023-06-02T01:56:44.877Z,13.58
2023-06-02T01:59:14.175Z,13.58
2023-06-02T02:01:43.617Z,13.58
2023-06-02T02:04:12.380Z,13.58
2023-06-02T02:06:41.087Z,13.62
2023-06-02T02:09:09.164Z,13.64
2023-06-02T02:11:37.465Z,13.64
2023-06-02T02:14:06.124Z,13.60
2023-06-02T02:16:34.897Z,13.55
2023-06-02T02:19:03.556Z,13.54
2023-06-02T02:21:31.728Z,13.58
2023-06-02T02:23:59.846Z,13.63
2023-06-02T02:26:29.200Z,13.60
2023-06-02T02:28:57.348Z,13.56
2023-06-02T02:31:25.759Z,13.47
2023-06-02T02:33:53.946Z,13.37
2023-06-02T02:36:23.298Z,13.31
2023-06-02T02:38:51.477Z,13.24
2023-06-02T02:41:21.213Z,13.20
2023-06-02T02:43:49.491Z,13.20
2023-06-02T02:46:21.316Z,13.17
2023-06-02T02:48:50.203Z,13.17
2023-06-02T02:51:18.512Z,13.18
2023-06-02T02:53:46.820Z,13.20
2023-06-02T02:56:16.317Z,13.23
2023-06-02T02:58:45.875Z,13.25
2023-06-02T03:01:17.108Z,13.29
2023-06-02T03:03:45.975Z,13.41
2023-06-02T03:06:19.290Z,13.54
2023-06-02T03:08:48.203Z,13.64
2023-06-02T03:11:16.394Z,13.72
2023-06-02T03:13:44.483Z,13.84
2023-06-02T03:16:14.017Z,13.96
2023-06-02T03:18:42.173Z,14.11
2023-06-02T03:21:11.227Z,14.27
2023-06-02T03:23:41.927Z,14.40
2023-06-02T03:26:13.063Z,14.52
2023-06-02T03:28:44.008Z,14.64
2023-06-02T03:31:12.772Z,14.78
2023-06-02T03:33:41.061Z,14.92
2023-06-02T03:36:10.936Z,15.04
2023-06-02T03:38:40.646Z,15.16
2023-06-02T03:41:08.719Z,15.29
2023-06-02T03:43:36.965Z,15.45
2023-06-02T03:46:05.339Z,15.62
2023-06-02T03:48:34.224Z,15.73
2023-06-02T03:51:04.399Z,15.85
2023-06-02T03:53:32.616Z,16.00
2023-06-02T03:56:01.031Z,16.16
2023-06-02T03:58:29.395Z,16.33
2023-06-02T04:00:59.452Z,16.52
2023-06-02T04:03:27.603Z,16.73
2023-06-02T04:05:56.250Z,16.93
2023-06-02T04:08:25.727Z,17.11
2023-06-02T04:10:54.135Z,17.28
2023-06-02T04:13:22.776Z,17.47
2023-06-02T04:15:50.922Z,17.68
2023-06-02T04:18:19.150Z,17.88
2023-06-02T04:20:48.505Z,18.09
2023-06-02T04:23:16.672Z,18.33
2023-06-02T04:25:45.060Z,18.58
2023-06-02T04:28:14.366Z,18.80
2023-06-02T04:30:42.654Z,19.02
2023-06-02T04:33:11.117Z,19.25
2023-06-02T04:35:39.252Z,19.46
2023-06-02T04:38:09.094Z,19.67
2023-06-02T04:40:40.566Z,19.90
2023-06-02T04:43:10.196Z,20.14
2023-06-02T04:45:44.782Z,20.37
2023-06-02T04:48:14.708Z,20.59
2023-06-02T04:50:43.063Z,20.81
2023-06-02T04:53:12.645Z,21.02
2023-06-02T04:55:40.609Z,21.21
2023-06-02T04:58:09.670Z,21.41
2023-06-02T05:00:38.793Z,21.54
2023-06-02T05:03:08.644Z,21.65
2023-06-02T05:05:37.189Z,21.86
2023-06-02T05:08:07.363Z,22.10
2023-06-02T05:10:35.514Z,22.35
2023-06-02T05:13:04.836Z,22.55
2023-06-02T05:15:33.656Z,22.68
2023-06-02T05:18:02.205Z,22.83
2023-06-02T05:20:30.654Z,22.99
2023-06-02T05:22:58.777Z,23.12
2023-06-02T05:25:26.905Z,23.18
2023-06-02T05:27:55.370Z,23.21
2023-06-02T05:30:24.036Z,23.26
2023-06-02T05:32:52.346Z,23.39
2023-06-02T05:35:21.322Z,23.63
2023-06-02T05:37:49.514Z,23.87
2023-06-02T05:40:19.069Z,24.04
2023-06-02T05:42:48.546Z,24.15
2023-06-02T05:45:17.988Z,24.30
2023-06-02T05:47:49.855Z,24.46
2023-06-02T05:50:18.949Z,24.62
2023-06-02T05:52:47.190Z,24.83
2023-06-02T05:55:15.504Z,24.95
2023-06-02T05:57:44.146Z,24.95
2023-06-02T06:00:13.786Z,25.00
2023-06-02T06:02:42.286Z,25.09
2023-06-02T06:05:12.560Z,25.19
2023-06-02T06:07:41.097Z,25.30
2023-06-02T06:10:09.732Z,25.42
2023-06-02T06:12:38.179Z,25.56
2023-06-02T06:15:06.862Z,25.73
2023-06-02T06:17:35.126Z,25.92
2023-06-02T06:20:03.570Z,26.08
2023-06-02T06:22:32.752Z,26.19
2023-06-02T06:25:00.966Z,26.30
2023-06-02T06:27:29.971Z,26.53
2023-06-02T06:29:58.752Z,26.83
2023-06-02T06:32:27.334Z,27.15
2023-06-02T06:34:55.644Z,27.44
2023-06-02T06:37:24.146Z,27.79
2023-06-02T06:39:52.271Z,28.08
2023-06-02T06:42:20.434Z,28.30
2023-06-02T06:44:58.427Z,28.54
2023-06-02T06:47:26.875Z,28.67
2023-06-02T06:49:56.224Z,28.81
2023-06-02T06:52:24.381Z,29.18
2023-06-02T06:54:52.489Z,29.35
2023-06-02T06:57:21.464Z,29.31
2023-06-02T06:59:49.693Z,29.46
2023-06-02T07:02:17.790Z,29.39
2023-06-02T07:04:46.868Z,29.35
2023-06-02T07:07:15.532Z,29.34
2023-06-02T07:09:43.912Z,29.25
2023-06-02T07:12:12.016Z,29.47
2023-06-02T07:14:40.127Z,29.38
2023-06-02T07:17:09.341Z,29.17
2023-06-02T07:19:37.471Z,29.02
2023-06-02T07:22:06.189Z,29.10
2023-06-02T07:24:34.641Z,29.17
2023-06-02T07:27:04.628Z,29.15
2023-06-02T07:29:32.863Z,29.13
2023-06-02T07:32:01.050Z,29.09
2023-06-02T07:34:29.256Z,29.10
2023-06-02T07:36:57.730Z,29.24
2023-06-02T07:39:26.012Z,29.16
2023-06-02T07:41:54.153Z,29.25
2023-06-02T07:44:22.310Z,29.39
2023-06-02T07:46:50.753Z,29.16
2023-06-02T07:49:18.910Z,29.18
2023-06-02T07:51:47.220Z,29.07
2023-06-02T07:54:15.822Z,29.05
2023-06-02T07:56:44.019Z,28.94
2023-06-02T07:59:13.530Z,28.97
2023-06-02T08:01:42.020Z,28.82
2023-06-02T08:04:10.389Z,28.67
2023-06-02T08:06:39.061Z,28.77
2023-06-02T08:09:07.665Z,28.94
2023-06-02T08:11:36.605Z,28.89
2023-06-02T08:14:05.034Z,29.00
2023-06-02T08:16:41.597Z,28.98
2023-06-02T08:19:22.174Z,28.97
2023-06-02T08:21:50.430Z,29.09
2023-06-02T08:24:22.132Z,29.15
2023-06-02T08:26:52.274Z,29.34
2023-06-02T08:29:21.621Z,29.56
2023-06-02T08:31:49.850Z,29.77
2023-06-02T08:34:22.001Z,29.80
2023-06-02T08:36:58.814Z,29.89
2023-06-02T08:39:31.111Z,29.90
2023-06-02T08:42:03.232Z,29.96
2023-06-02T08:44:31.725Z,30.07
2023-06-02T08:47:02.482Z,30.11
2023-06-02T08:49:34.473Z,30.01
2023-06-02T08:52:09.604Z,30.21
2023-06-02T08:54:39.734Z,29.88
2023-06-02T08:57:09.184Z,30.04
2023-06-02T08:59:37.800Z,30.01
2023-06-02T09:02:06.212Z,30.04
2023-06-02T09:04:34.707Z,30.07
2023-06-02T09:07:14.844Z,30.24
2023-06-02T09:09:48.271Z,30.32
2023-06-02T09:12:18.167Z,30.39
2023-06-02T09:15:11.143Z,30.59
2023-06-02T09:17:40.159Z,30.52
2023-06-02T09:20:12.575Z,30.41
2023-06-02T09:22:58.545Z,30.44
2023-06-02T09:25:31.116Z,30.57
2023-06-02T09:28:00.924Z,30.79
2023-06-02T09:30:30.214Z,30.88
2023-06-02T09:33:13.779Z,30.92
2023-06-02T09:35:44.146Z,30.93
2023-06-02T09:38:18.667Z,30.89
2023-06-02T09:40:46.783Z,31.01
2023-06-02T09:43:17.340Z,31.19
2023-06-02T09:45:55.669Z,31.23
2023-06-02T09:48:24.632Z,31.25
2023-06-02T09:50:52.999Z,31.23
2023-06-02T09:53:23.769Z,31.16
2023-06-02T09:55:52.232Z,31.23
2023-06-02T09:58:20.723Z,31.37
2023-06-02T10:00:49.011Z,31.34
2023-06-02T10:03:17.469Z,31.46
2023-06-02T10:06:04.751Z,31.44
2023-06-02T10:09:12.258Z,31.38
2023-06-02T10:12:24.937Z,31.37
2023-06-02T10:15:28.453Z,31.18
2023-06-02T10:18:00.228Z,30.70
2023-06-02T10:20:36.879Z,30.55
2023-06-02T10:23:40.528Z,30.52
2023-06-02T10:26:08.660Z,30.71
2023-06-02T10:28:37.732Z,30.97
2023-06-02T10:31:11.022Z,31.05
2023-06-02T10:33:47.706Z,31.01
2023-06-02T10:36:19.285Z,30.84
2023-06-02T10:38:47.894Z,30.70
2023-06-02T10:41:18.110Z,30.94
2023-06-02T10:44:20.107Z,30.98
2023-06-02T10:46:48.474Z,30.74
2023-06-02T10:49:55.009Z,30.62
2023-06-02T10:52:23.690Z,30.52
2023-06-02T10:55:13.785Z,30.45
2023-06-02T10:58:00.201Z,30.17
2023-06-02T11:00:37.892Z,30.27
2023-06-02T11:03:28.999Z,30.21
2023-06-02T11:06:31.120Z,30.31
2023-06-02T11:09:43.916Z,30.32
2023-06-02T11:12:13.033Z,30.22
2023-06-02T11:15:03.847Z,29.88
2023-06-02T11:17:33.980Z,29.65
2023-06-02T11:20:07.080Z,29.42
2023-06-02T11:22:37.813Z,29.27
2023-06-02T11:25:06.960Z,29.30
2023-06-02T11:27:47.066Z,29.42
2023-06-02T11:30:20.186Z,29.31
2023-06-02T11:32:53.455Z,29.44
2023-06-02T11:35:27.276Z,29.61
2023-06-02T11:38:21.808Z,29.67
2023-06-02T11:40:49.897Z,29.51
2023-06-02T11:43:22.433Z,29.52
2023-06-02T11:45:50.605Z,29.55
2023-06-02T11:48:23.921Z,29.59
2023-06-02T11:50:55.579Z,29.50
2023-06-02T11:53:24.549Z,29.49
2023-06-02T11:55:53.672Z,29.65
2023-06-02T11:58:24.480Z,29.82
2023-06-02T12:00:53.664Z,29.70
2023-06-02T12:03:26.507Z,29.57
2023-06-02T12:05:57.244Z,29.36
2023-06-02T12:08:27.292Z,29.09
2023-06-02T12:10:59.027Z,28.90
2023-06-02T12:13:33.040Z,28.78
2023-06-02T12:16:25.965Z,28.69
2023-06-02T12:18:57.484Z,28.63
2023-06-02T12:21:29.612Z,28.48
2023-06-02T12:24:00.233Z,28.30
2023-06-02T12:26:28.580Z,28.24
2023-06-02T12:28:58.591Z,28.18
2023-06-02T12:31:26.937Z,28.26
2023-06-02T12:33:55.252Z,28.31
2023-06-02T12:36:23.528Z,28.28
2023-06-02T12:38:51.652Z,28.13
2023-06-02T12:41:19.874Z,28.14
2023-06-02T12:43:48.743Z,27.96
2023-06-02T12:46:18.344Z,27.72
2023-06-02T12:48:48.860Z,27.62
2023-06-02T12:51:17.295Z,27.55
2023-06-02T12:53:46.475Z,27.58
2023-06-02T12:56:15.545Z,27.68
2023-06-02T12:58:44.095Z,27.93
2023-06-02T13:01:12.199Z,28.24
2023-06-02T13:03:41.125Z,28.49
2023-06-02T13:06:11.339Z,28.57
2023-06-02T13:08:40.142Z,28.40
2023-06-02T13:11:08.872Z,28.23
2023-06-02T13:13:37.703Z,28.16
2023-06-02T13:16:06.423Z,28.04
2023-06-02T13:18:35.032Z,27.85
2023-06-02T13:21:03.350Z,27.75
2023-06-02T13:23:31.796Z,27.81
2023-06-02T13:26:00.107Z,27.88
2023-06-02T13:28:30.002Z,27.90
2023-06-02T13:31:02.520Z,27.82
2023-06-02T13:33:31.924Z,27.66
2023-06-02T13:36:00.083Z,27.61
2023-06-02T13:38:28.217Z,27.47
2023-06-02T13:40:59.273Z,27.28
2023-06-02T13:43:27.978Z,27.13
2023-06-02T13:45:56.200Z,26.87
2023-06-02T13:48:24.663Z,26.70
2023-06-02T13:50:52.848Z,26.66
2023-06-02T13:53:21.061Z,26.62
2023-06-02T13:55:49.270Z,26.47
2023-06-02T13:58:17.364Z,26.30
2023-06-02T14:00:46.842Z,26.08
2023-06-02T14:03:15.292Z,25.96
2023-06-02T14:05:47.262Z,25.92
2023-06-02T14:08:17.774Z,25.87
2023-06-02T14:10:46.235Z,25.79
2023-06-02T14:13:14.780Z,25.71
2023-06-02T14:15:43.098Z,25.67
2023-06-02T14:18:11.479Z,25.52
2023-06-02T14:20:40.296Z,25.36
2023-06-02T14:23:08.411Z,25.23
2023-06-02T14:25:36.760Z,25.19
2023-06-02T14:28:05.088Z,25.21
2023-06-02T14:30:33.964Z,25.16
2023-06-02T14:33:02.076Z,25.07
2023-06-02T14:35:30.469Z,25.02
2023-06-02T14:37:58.848Z,25.04
2023-06-02T14:40:28.212Z,24.92
2023-06-02T14:42:56.385Z,24.79
2023-06-02T14:45:24.442Z,24.69
2023-06-02T14:47:52.878Z,24.63
2023-06-02T14:50:21.113Z,24.64
2023-06-02T14:52:49.262Z,24.62
2023-06-02T14:55:18.185Z,24.51
2023-06-02T14:57:46.506Z,24.41
2023-06-02T15:00:14.981Z,24.32
2023-06-02T15:02:43.244Z,24.24
2023-06-02T15:05:11.688Z,24.16
2023-06-02T15:07:39.946Z,24.11
2023-06-02T15:10:08.873Z,24.10
2023-06-02T15:12:36.909Z,24.13
2023-06-02T15:15:05.797Z,24.20
2023-06-02T15:17:33.812Z,24.23
2023-06-02T15:20:02.456Z,24.18
2023-06-02T15:22:31.756Z,24.11
2023-06-02T15:25:01.560Z,24.07
2023-06-02T15:27:30.752Z,24.05
2023-06-02T15:29:59.296Z,23.96
2023-06-02T15:32:27.463Z,23.88
2023-06-02T15:34:55.617Z,23.82
2023-06-02T15:37:23.889Z,23.81
2023-06-02T15:39:53.620Z,23.75
2023-06-02T15:42:21.695Z,23.67
2023-06-02T15:44:49.987Z,23.65
2023-06-02T15:47:18.244Z,23.66
2023-06-02T15:49:46.355Z,23.60
2023-06-02T15:52:14.556Z,23.54
2023-06-02T15:54:42.662Z,23.49
2023-06-02T15:57:11.034Z,23.45
2023-06-02T15:59:43.441Z,23.40
2023-06-02T16:02:11.606Z,23.35
2023-06-02T16:04:40.850Z,23.28
2023-06-02T16:07:08.923Z,23.24
2023-06-02T16:09:37.163Z,23.17
2023-06-02T16:12:05.970Z,23.07
2023-06-02T16:14:34.112Z,22.99
2023-06-02T16:17:02.886Z,22.92
2023-06-02T16:19:32.111Z,22.83
2023-06-02T16:22:00.368Z,22.71
2023-06-02T16:24:28.643Z,22.62
2023-06-02T16:26:56.812Z,22.53
2023-06-02T16:29:25.090Z,22.46
2023-06-02T16:31:53.588Z,22.41
2023-06-02T16:34:21.730Z,22.39
2023-06-02T16:36:51.533Z,22.38
2023-06-02T16:39:19.921Z,22.38
2023-06-02T16:41:48.063Z,22.37
2023-06-02T16:44:16.970Z,22.37
2023-06-02T16:46:45.344Z,22.35
2023-06-02T16:49:14.950Z,22.32
2023-06-02T16:51:43.081Z,22.26
2023-06-02T16:54:13.069Z,22.22
2023-06-02T16:56:41.653Z,22.17
2023-06-02T16:59:10.003Z,22.11
2023-06-02T17:01:38.273Z,22.07
2023-06-02T17:04:06.825Z,22.02
2023-06-02T17:06:36.768Z,21.97
2023-06-02T17:09:05.404Z,21.92
2023-06-02T17:11:33.599Z,21.88
2023-06-02T17:14:01.783Z,21.83
2023-06-02T17:16:30.217Z,21.79
2023-06-02T17:18:58.949Z,21.74
2023-06-02T17:21:27.956Z,21.69
2023-06-02T17:23:57.395Z,21.64
2023-06-02T17:26:26.567Z,21.59
2023-06-02T17:28:54.731Z,21.55
2023-06-02T17:31:23.071Z,21.50
2023-06-02T17:33:51.539Z,21.44
2023-06-02T17:36:19.706Z,21.39
2023-06-02T17:38:47.864Z,21.35
2023-06-02T17:41:17.353Z,21.32
2023-06-02T17:43:47.237Z,21.28
2023-06-02T17:46:19.474Z,21.25
2023-06-02T17:48:47.811Z,21.21
2023-06-02T17:51:16.383Z,21.17
2023-06-02T17:53:44.645Z,21.12
2023-06-02T17:56:13.030Z,21.09
2023-06-02T17:58:41.738Z,21.06
2023-06-02T18:01:11.318Z,21.03
2023-06-02T18:03:40.041Z,21.00
2023-06-02T18:06:08.508Z,20.96
2023-06-02T18:08:37.497Z,20.94
2023-06-02T18:11:06.164Z,20.98
2023-06-02T18:13:34.777Z,20.96
2023-06-02T18:16:02.887Z,20.93
2023-06-02T18:18:31.188Z,20.92
2023-06-02T18:20:59.576Z,20.93
2023-06-02T18:23:28.284Z,20.93
2023-06-02T18:25:58.387Z,20.96
2023-06-02T18:28:26.781Z,20.98
2023-06-02T18:30:54.891Z,20.95
2023-06-02T18:33:22.965Z,20.94
2023-06-02T18:35:51.282Z,20.93
2023-06-02T18:38:19.377Z,20.92
2023-06-02T18:40:47.488Z,20.95
2023-06-02T18:43:15.707Z,20.92
2023-06-02T18:45:43.863Z,20.89
2023-06-02T18:48:12.742Z,20.87
2023-06-02T18:50:41.602Z,20.87
2023-06-02T18:53:11.971Z,20.87
2023-06-02T18:55:40.116Z,20.90
2023-06-02T18:58:08.888Z,20.90
2023-06-02T19:00:40.457Z,20.87
2023-06-02T19:03:08.939Z,20.86
2023-06-02T19:05:37.523Z,20.84
2023-06-02T19:08:06.657Z,20.87
2023-06-02T19:10:34.643Z,20.85
2023-06-02T19:13:03.017Z,20.81
2023-06-02T19:15:31.348Z,20.77
2023-06-02T19:18:01.806Z,20.75
2023-06-02T19:20:31.505Z,20.79
2023-06-02T19:22:59.953Z,20.79
2023-06-02T19:25:28.715Z,20.76
2023-06-02T19:27:57.105Z,20.72
2023-06-02T19:30:25.995Z,20.69
2023-06-02T19:32:54.237Z,20.68
2023-06-02T19:35:23.191Z,20.71
2023-06-02T19:37:51.433Z,20.68
2023-06-02T19:40:19.693Z,20.65
2023-06-02T19:42:47.922Z,20.63
2023-06-02T19:45:16.105Z,20.60
2023-06-02T19:47:44.326Z,20.57
2023-06-02T19:50:14.294Z,20.53
2023-06-02T19:52:42.815Z,20.49
2023-06-02T19:55:11.624Z,20.47
2023-06-02T19:57:41.315Z,20.43
2023-06-02T20:00:10.949Z,20.40
2023-06-02T20:02:39.514Z,20.38
2023-06-02T20:05:12.218Z,20.37
2023-06-02T20:07:41.926Z,20.34
2023-06-02T20:10:12.247Z,20.31
2023-06-02T20:12:40.605Z,20.29
2023-06-02T20:15:09.678Z,20.30
2023-06-02T20:17:37.799Z,20.30
2023-06-02T20:20:07.206Z,20.27
2023-06-02T20:22:35.596Z,20.20
2023-06-02T20:25:04.187Z,20.12
2023-06-02T20:27:32.258Z,20.03
2023-06-02T20:30:02.048Z,19.95
2023-06-02T20:32:31.111Z,19.87
2023-06-02T20:34:59.289Z,19.84
2023-06-02T20:37:27.472Z,19.77
2023-06-02T20:39:55.752Z,19.70
2023-06-02T20:42:23.923Z,19.64
2023-06-02T20:44:52.277Z,19.62
2023-06-02T20:47:20.905Z,19.62
2023-06-02T20:49:49.013Z,19.62
2023-06-02T20:52:17.128Z,19.60
2023-06-02T20:54:45.261Z,19.57
2023-06-02T20:57:13.362Z,19.56
2023-06-02T20:59:41.761Z,19.55
2023-06-02T21:02:11.219Z,19.55
2023-06-02T21:04:40.296Z,19.53
2023-06-02T21:07:08.437Z,19.50
2023-06-02T21:09:38.127Z,19.49
2023-06-02T21:12:06.851Z,19.47
2023-06-02T21:14:35.062Z,19.42
2023-06-02T21:17:03.379Z,19.37
2023-06-02T21:19:31.712Z,19.27
2023-06-02T21:21:59.922Z,19.13
2023-06-02T21:24:28.340Z,18.96
2023-06-02T21:26:57.716Z,18.82
2023-06-02T21:29:25.850Z,18.70
2023-06-02T21:31:53.993Z,18.58
2023-06-02T21:34:22.042Z,18.47
2023-06-02T21:36:50.337Z,18.36
2023-06-02T21:39:18.478Z,18.26
2023-06-02T21:41:48.984Z,18.12
2023-06-02T21:44:17.743Z,17.98
2023-06-02T21:46:46.006Z,17.90
2023-06-02T21:49:15.701Z,17.81
2023-06-02T21:51:45.343Z,17.74
2023-06-02T21:54:13.438Z,17.66
2023-06-02T21:56:41.654Z,17.60
2023-06-02T21:59:09.875Z,17.57
2023-06-02T22:01:37.989Z,17.50
2023-06-02T22:04:06.220Z,17.40
2023-06-02T22:06:34.390Z,17.31
2023-06-02T22:09:02.845Z,17.23
2023-06-02T22:11:31.128Z,17.11
2023-06-02T22:13:59.336Z,16.99
2023-06-02T22:16:27.633Z,16.81
2023-06-02T22:18:55.765Z,16.67
2023-06-02T22:21:41.701Z,16.51
2023-06-02T22:24:18.776Z,16.45
2023-06-02T22:26:55.168Z,16.43
2023-06-02T22:29:48.180Z,16.42
2023-06-02T22:32:16.317Z,16.35
2023-06-02T22:34:44.406Z,16.27
2023-06-02T22:37:12.514Z,16.23
2023-06-02T22:39:41.367Z,16.21
2023-06-02T22:42:09.723Z,16.18
2023-06-02T22:44:38.563Z,16.11
2023-06-02T22:47:07.219Z,16.05
2023-06-02T22:49:35.565Z,16.03
2023-06-02T22:52:03.732Z,16.05
2023-06-02T22:54:31.933Z,16.02
2023-06-02T22:56:59.981Z,15.94
2023-06-02T22:59:28.237Z,15.80
2023-06-02T23:01:56.318Z,15.68
2023-06-02T23:04:24.530Z,15.56
2023-06-02T23:06:52.590Z,15.52
2023-06-02T23:09:20.845Z,15.50
2023-06-02T23:11:49.777Z,15.46
2023-06-02T23:14:17.941Z,15.42
2023-06-02T23:16:48.724Z,15.42
2023-06-02T23:19:17.996Z,15.41
2023-06-02T23:21:46.144Z,15.38
2023-06-02T23:24:14.277Z,15.35
2023-06-02T23:26:42.366Z,15.32
2023-06-02T23:29:10.532Z,15.26
2023-06-02T23:31:38.910Z,15.21
2023-06-02T23:34:07.218Z,15.14
2023-06-02T23:36:35.780Z,15.07
2023-06-02T23:39:04.420Z,15.00
2023-06-02T23:41:32.612Z,14.97
2023-06-02T23:44:00.811Z,14.92
2023-06-02T23:46:29.889Z,14.85
2023-06-02T23:48:58.917Z,14.78
2023-06-02T23:51:27.025Z,14.69
2023-06-02T23:53:55.365Z,14.61
2023-06-02T23:56:23.421Z,14.58
2023-06-02T23:58:51.482Z,14.54
